首页
METAR-TAF:

METAR-TAF

机场 :

塔科马 / Fort Lewis, 华盛顿, 美国

纬度: 47-07N, 经度: 122-33W, 海拔: 92米

当前天气观测

该预报发布于23分钟前的20:58 UTC
风速8节,风向南转南东
温度 9°C
湿度 100%
气压 1014 hPa
能見度: 16.1公里
散云层高于3500英尺
多云层高于12000英尺
多云层高于14000英尺

METAR: KGRF 112058Z 15008KT 10SM SCT035 BKN120 BKN140 09/09 A2994 RMK AO2A RAB05E30 SLP144 P0000 60001 T00940094 57014 $

时间: 13:21 (21:21 UTC)

预报

该预报发布于19分钟前的21:02 UTC
预报有效从11日的 21点(UTC)到 13日的 03点(UTC)
风速12节,风向南转南东
能見度: 8000
散云层高于3500英尺
阴天层高于5000英尺
小雨
成为
从 12日的 00点(UTC)到 12日的 01点(UTC)
风速15节,风向,有时为25节阵风
能見度: 6000
阴天层高于2500英尺
小阵雨
成为
从 12日的 09点(UTC)到 12日的 10点(UTC)
风速15节,风向,有时为28节阵风
能见度10公里或以上
多云层高于1000英尺
阴天层高于2000英尺
附近有阵雨
成为
从 12日的 17点(UTC)到 12日的 18点(UTC)
风速20节,风向西南,有时为28节阵风
能見度: 8000
阴天层高于1500英尺
小阵雨

TAF: KGRF 112102Z 1121/1303 15012KT 8000 -RA SCT035 OVC050 630607 510002 540209 QNH2983INS BECMG 1200/1201 19015G25KT 6000 -SHRA OVC025 610609 520002 540209 QNH2976INS BECMG 1209/1210 19015G28KT 9999 VCSH BKN010 OVC020 610407 510002 540209 QNH2980INS BECMG 1217/1218 22020G28KT 8000 -SHRA OVC015 610407 520002 540209 QNH2985INS TX10/1122Z TN06/1213Z

超过4000个机场的气象观测和天气预报(METAR&TAF报告)。

可查询的气象台以黄色和红色小点在地图上表示。

将鼠标移到小点上方,可查看气象台名称。

然后点击查看天气观测和预报。

如需切换地图:点击带黑十字的绿色按钮放大地图;点击带横线的绿色按钮缩小地图;或者点击绿色箭头查看邻近地区的地图。


METAR-TAF: